createdAt,value
2023-04-02T00:02:19.634Z,5.64
2023-04-02T00:05:06.215Z,5.65
2023-04-02T00:07:33.296Z,5.69
2023-04-02T00:09:59.919Z,5.70
2023-04-02T00:12:26.506Z,5.70
2023-04-02T00:14:54.634Z,5.70
2023-04-02T00:17:24.667Z,5.70
2023-04-02T00:19:54.526Z,5.73
2023-04-02T00:22:22.779Z,5.72
2023-04-02T00:24:54.263Z,5.73
2023-04-02T00:27:21.427Z,5.71
2023-04-02T00:29:57.888Z,5.72
2023-04-02T00:32:29.254Z,5.71
2023-04-02T00:34:55.921Z,5.71
2023-04-02T00:37:25.105Z,5.70
2023-04-02T00:39:53.341Z,5.70
2023-04-02T00:42:20.259Z,5.72
2023-04-02T00:44:48.958Z,5.73
2023-04-02T00:47:32.760Z,5.70
2023-04-02T00:50:02.582Z,5.73
2023-04-02T00:52:31.913Z,5.73
2023-04-02T00:55:02.620Z,5.74
2023-04-02T00:57:29.732Z,5.74
2023-04-02T01:00:03.612Z,5.74
2023-04-02T01:02:34.225Z,5.79
2023-04-02T01:05:16.000Z,5.82
2023-04-02T01:07:58.738Z,5.85
2023-04-02T01:10:28.276Z,5.86
2023-04-02T01:12:54.812Z,5.87
2023-04-02T01:15:26.068Z,5.90
2023-04-02T01:17:54.725Z,5.93
2023-04-02T01:20:27.672Z,5.95
2023-04-02T01:22:55.062Z,5.93
2023-04-02T01:25:28.543Z,5.93
2023-04-02T01:28:05.623Z,5.95
2023-04-02T01:30:34.866Z,5.97
2023-04-02T01:33:01.542Z,5.96
2023-04-02T01:35:31.482Z,5.97
2023-04-02T01:38:18.979Z,6.02
2023-04-02T01:40:56.715Z,6.02
2023-04-02T01:43:29.126Z,6.03
2023-04-02T01:45:57.428Z,6.04
2023-04-02T01:48:27.447Z,6.06
2023-04-02T01:50:55.681Z,6.11
2023-04-02T01:53:24.931Z,6.10
2023-04-02T01:55:53.182Z,6.06
2023-04-02T01:58:24.064Z,6.10
2023-04-02T02:00:57.025Z,6.13
2023-04-02T02:03:23.882Z,6.13
2023-04-02T02:05:50.955Z,6.09
2023-04-02T02:08:38.591Z,6.09
2023-04-02T02:11:05.777Z,6.06
2023-04-02T02:13:32.349Z,6.04
2023-04-02T02:15:59.376Z,6.05
2023-04-02T02:18:27.607Z,6.06
2023-04-02T02:20:55.343Z,6.07
2023-04-02T02:23:22.295Z,6.09
2023-04-02T02:25:49.532Z,6.09
2023-04-02T02:28:19.096Z,6.07
2023-04-02T02:30:50.969Z,6.05
2023-04-02T02:33:32.849Z,6.05
2023-04-02T02:36:05.497Z,6.05
2023-04-02T02:38:34.999Z,6.05
2023-04-02T02:41:04.596Z,6.00
2023-04-02T02:43:32.634Z,6.01
2023-04-02T02:45:59.685Z,5.96
2023-04-02T02:48:34.151Z,5.93
2023-04-02T02:51:02.256Z,5.96
2023-04-02T02:53:28.913Z,5.95
2023-04-02T02:55:58.149Z,5.97
2023-04-02T02:58:27.485Z,5.95
2023-04-02T03:00:54.537Z,5.92
2023-04-02T03:03:24.065Z,5.92
2023-04-02T03:05:55.265Z,5.91
2023-04-02T03:08:28.500Z,5.90
2023-04-02T03:10:58.063Z,5.91
2023-04-02T03:13:27.356Z,5.92
2023-04-02T03:16:09.249Z,5.89
2023-04-02T03:18:38.968Z,5.87
2023-04-02T03:21:05.526Z,5.87
2023-04-02T03:23:46.361Z,5.90
2023-04-02T03:26:22.853Z,5.83
2023-04-02T03:28:56.350Z,5.82
2023-04-02T03:31:26.590Z,5.85
2023-04-02T03:33:56.885Z,5.86
2023-04-02T03:36:28.568Z,5.87
2023-04-02T03:39:10.090Z,5.86
2023-04-02T03:42:09.156Z,5.82
2023-04-02T03:44:39.282Z,5.85
2023-04-02T03:47:13.099Z,5.90
2023-04-02T03:49:44.447Z,5.97
2023-04-02T03:52:12.299Z,5.97
2023-04-02T03:54:39.624Z,5.98
2023-04-02T03:57:11.912Z,5.96
2023-04-02T03:59:48.982Z,5.99
2023-04-02T04:02:38.630Z,5.99
2023-04-02T04:05:06.874Z,6.04
2023-04-02T04:07:41.537Z,6.07
2023-04-02T04:10:14.674Z,6.12
2023-04-02T04:12:43.830Z,6.13
2023-04-02T04:15:25.728Z,6.14
2023-04-02T04:18:02.413Z,6.14
2023-04-02T04:20:29.151Z,6.12
2023-04-02T04:22:56.116Z,6.10
2023-04-02T04:25:30.375Z,6.05
2023-04-02T04:27:57.119Z,6.06
2023-04-02T04:30:35.011Z,6.01
2023-04-02T04:33:04.846Z,5.98
2023-04-02T04:35:34.284Z,5.94
2023-04-02T04:38:27.723Z,5.96
2023-04-02T04:40:56.632Z,5.96
2023-04-02T04:43:37.466Z,5.95
2023-04-02T04:46:08.332Z,5.94
2023-04-02T04:48:41.642Z,5.93
2023-04-02T04:51:17.239Z,5.96
2023-04-02T04:53:48.347Z,5.96
2023-04-02T04:56:19.574Z,5.92
2023-04-02T04:58:46.512Z,5.99
2023-04-02T05:01:17.467Z,5.98
2023-04-02T05:03:51.928Z,6.00
2023-04-02T05:06:24.762Z,6.00
2023-04-02T05:08:52.833Z,6.00
2023-04-02T05:11:32.542Z,6.04
2023-04-02T05:14:14.522Z,6.06
2023-04-02T05:16:48.951Z,6.08
2023-04-02T05:19:23.755Z,6.07
2023-04-02T05:22:00.503Z,6.02
2023-04-02T05:24:29.976Z,6.07
2023-04-02T05:27:02.945Z,6.05
2023-04-02T05:29:36.589Z,6.00
2023-04-02T05:32:03.562Z,6.02
2023-04-02T05:34:32.861Z,6.04
2023-04-02T05:36:59.552Z,5.98
2023-04-02T05:39:27.124Z,6.00
2023-04-02T05:42:04.888Z,6.03
2023-04-02T05:44:33.442Z,6.02
2023-04-02T05:47:12.280Z,5.99
2023-04-02T05:49:39.303Z,5.98
2023-04-02T05:52:08.157Z,6.01
2023-04-02T05:54:39.747Z,6.03
2023-04-02T05:57:16.227Z,6.00
2023-04-02T05:59:49.523Z,5.99
2023-04-02T06:02:31.070Z,5.99
2023-04-02T06:05:12.610Z,6.01
2023-04-02T06:07:42.161Z,6.03
2023-04-02T06:10:24.595Z,6.01
2023-04-02T06:13:03.536Z,6.03
2023-04-02T06:15:31.499Z,6.12
2023-04-02T06:18:18.818Z,6.14
2023-04-02T06:20:46.195Z,6.13
2023-04-02T06:23:12.761Z,6.21
2023-04-02T06:25:44.856Z,6.24
2023-04-02T06:28:16.691Z,6.30
2023-04-02T06:30:43.650Z,6.38
2023-04-02T06:33:12.020Z,6.41
2023-04-02T06:35:40.356Z,6.44
2023-04-02T06:38:12.346Z,6.53
2023-04-02T06:40:47.657Z,6.58
2023-04-02T06:43:20.826Z,6.59
2023-04-02T06:45:51.683Z,6.59
2023-04-02T06:48:19.497Z,6.64
2023-04-02T06:50:48.640Z,6.72
2023-04-02T06:53:35.907Z,6.84
2023-04-02T06:56:05.613Z,6.87
2023-04-02T06:58:32.184Z,6.89
2023-04-02T07:00:58.815Z,6.94
2023-04-02T07:03:27.198Z,6.90
2023-04-02T07:05:53.955Z,6.87
2023-04-02T07:08:20.893Z,6.85
2023-04-02T07:10:47.701Z,6.82
2023-04-02T07:13:15.902Z,6.79
2023-04-02T07:15:43.200Z,6.77
2023-04-02T07:18:23.803Z,6.75
2023-04-02T07:20:52.045Z,6.73
2023-04-02T07:23:18.751Z,6.67
2023-04-02T07:25:45.347Z,6.73
2023-04-02T07:28:13.521Z,6.72
2023-04-02T07:30:40.464Z,6.72
2023-04-02T07:33:07.051Z,6.75
2023-04-02T07:35:34.873Z,6.78
2023-04-02T07:38:01.647Z,6.75
2023-04-02T07:40:28.185Z,6.83
2023-04-02T07:42:54.815Z,6.89
2023-04-02T07:45:21.394Z,6.93
2023-04-02T07:47:47.943Z,6.98
2023-04-02T07:50:14.732Z,7.02
2023-04-02T07:52:45.267Z,7.03
2023-04-02T07:55:13.001Z,7.01
2023-04-02T07:57:50.347Z,6.97
2023-04-02T08:00:17.441Z,6.98
2023-04-02T08:02:44.020Z,6.95
2023-04-02T08:05:10.792Z,6.98
2023-04-02T08:07:39.034Z,7.01
2023-04-02T08:10:06.609Z,7.03
2023-04-02T08:12:33.206Z,7.03
2023-04-02T08:14:59.844Z,7.02
2023-04-02T08:17:31.286Z,7.07
2023-04-02T08:20:01.757Z,7.06
2023-04-02T08:22:29.009Z,7.11
2023-04-02T08:24:56.445Z,7.08
2023-04-02T08:27:23.802Z,7.04
2023-04-02T08:29:50.946Z,7.00
2023-04-02T08:32:17.953Z,7.00
2023-04-02T08:34:45.083Z,6.95
2023-04-02T08:37:12.139Z,6.95
2023-04-02T08:39:39.193Z,6.94
2023-04-02T08:42:05.976Z,6.95
2023-04-02T08:44:32.512Z,6.93
2023-04-02T08:46:59.058Z,6.97
2023-04-02T08:49:46.009Z,6.95
2023-04-02T08:52:20.932Z,6.92
2023-04-02T08:54:47.812Z,7.03
2023-04-02T08:57:27.330Z,7.06
2023-04-02T09:00:06.188Z,7.01
2023-04-02T09:02:39.558Z,6.99
2023-04-02T09:05:07.555Z,6.97
2023-04-02T09:07:34.901Z,7.03
2023-04-02T09:10:02.855Z,6.98
2023-04-02T09:12:30.995Z,6.98
2023-04-02T09:15:06.787Z,7.04
2023-04-02T09:17:42.738Z,7.11
2023-04-02T09:20:18.013Z,7.17
2023-04-02T09:22:46.205Z,7.16
2023-04-02T09:25:15.005Z,7.08
2023-04-02T09:27:41.800Z,7.06
2023-04-02T09:30:08.915Z,7.07
2023-04-02T09:32:42.245Z,7.21
2023-04-02T09:35:26.261Z,7.22
2023-04-02T09:38:11.839Z,7.29
2023-04-02T09:40:58.431Z,7.35
2023-04-02T09:43:43.105Z,7.26
2023-04-02T09:46:12.823Z,7.23
2023-04-02T09:48:50.170Z,7.25
2023-04-02T09:51:21.760Z,7.25
2023-04-02T09:53:49.672Z,7.25
2023-04-02T09:56:20.135Z,7.26
2023-04-02T09:59:01.966Z,7.28
2023-04-02T10:01:31.191Z,7.29
2023-04-02T10:03:59.435Z,7.34
2023-04-02T10:06:27.618Z,7.43
2023-04-02T10:08:54.497Z,7.50
2023-04-02T10:11:21.506Z,7.54
2023-04-02T10:14:06.161Z,7.58
2023-04-02T10:16:37.002Z,7.56
2023-04-02T10:19:07.186Z,7.73
2023-04-02T10:21:36.225Z,7.91
2023-04-02T10:24:03.533Z,8.03
2023-04-02T10:26:45.818Z,8.22
2023-04-02T10:29:18.472Z,8.41
2023-04-02T10:32:00.455Z,8.41
2023-04-02T10:34:36.461Z,8.49
2023-04-02T10:37:19.977Z,8.57
2023-04-02T10:39:52.103Z,8.72
2023-04-02T10:42:26.725Z,8.92
2023-04-02T10:44:53.269Z,9.14
2023-04-02T10:47:19.828Z,9.25
2023-04-02T10:49:49.348Z,9.40
2023-04-02T10:52:21.334Z,9.68
2023-04-02T10:54:52.752Z,9.91
2023-04-02T10:57:25.168Z,10.18
2023-04-02T11:00:06.065Z,10.36
2023-04-02T11:02:51.266Z,10.28
2023-04-02T11:05:18.052Z,10.10
2023-04-02T11:07:57.489Z,10.21
2023-04-02T11:10:25.940Z,10.74
2023-04-02T11:12:57.181Z,11.44
2023-04-02T11:15:24.155Z,11.79
2023-04-02T11:17:51.640Z,11.63
2023-04-02T11:20:47.921Z,11.22
2023-04-02T11:23:27.485Z,10.83
2023-04-02T11:26:13.993Z,10.62
2023-04-02T11:28:41.296Z,10.37
2023-04-02T11:31:08.030Z,10.10
2023-04-02T11:33:38.628Z,10.01
2023-04-02T11:36:25.119Z,9.90
2023-04-02T11:38:52.921Z,9.74
2023-04-02T11:41:45.692Z,9.62
2023-04-02T11:44:23.016Z,9.57
2023-04-02T11:46:49.651Z,9.62
2023-04-02T11:49:36.467Z,9.59
2023-04-02T11:52:11.979Z,9.53
2023-04-02T11:54:39.453Z,9.48
2023-04-02T11:57:30.656Z,9.51
2023-04-02T12:00:17.561Z,9.51
2023-04-02T12:02:57.145Z,9.46
2023-04-02T12:05:23.759Z,9.48
2023-04-02T12:07:53.415Z,9.45
2023-04-02T12:10:21.976Z,9.42
2023-04-02T12:12:49.224Z,9.45
2023-04-02T12:15:24.668Z,9.45
2023-04-02T12:17:51.434Z,9.48
2023-04-02T12:20:27.470Z,9.51
2023-04-02T12:22:55.758Z,9.53
2023-04-02T12:25:32.780Z,9.61
2023-04-02T12:28:11.530Z,9.78
2023-04-02T12:30:38.772Z,9.88
2023-04-02T12:33:15.764Z,10.00
2023-04-02T12:35:43.492Z,10.12
2023-04-02T12:38:20.408Z,10.24
2023-04-02T12:41:13.463Z,10.24
2023-04-02T12:43:40.153Z,10.32
2023-04-02T12:46:07.853Z,10.38
2023-04-02T12:48:35.167Z,10.48
2023-04-02T12:51:02.921Z,10.54
2023-04-02T12:53:36.659Z,10.60
2023-04-02T12:56:03.802Z,10.67
2023-04-02T12:58:33.449Z,10.64
2023-04-02T13:01:12.321Z,10.55
2023-04-02T13:03:38.916Z,10.47
2023-04-02T13:06:18.597Z,10.33
2023-04-02T13:08:45.127Z,10.21
2023-04-02T13:11:11.809Z,10.20
2023-04-02T13:13:42.742Z,10.24
2023-04-02T13:16:15.318Z,10.17
2023-04-02T13:18:42.727Z,10.12
2023-04-02T13:21:21.672Z,10.07
2023-04-02T13:23:48.212Z,10.03
2023-04-02T13:26:17.438Z,10.07
2023-04-02T13:28:55.375Z,10.08
2023-04-02T13:31:22.187Z,10.07
2023-04-02T13:33:48.828Z,10.04
2023-04-02T13:36:15.782Z,10.04
2023-04-02T13:38:42.361Z,10.01
2023-04-02T13:41:28.090Z,10.04
2023-04-02T13:43:55.344Z,10.06
2023-04-02T13:46:23.330Z,10.11
2023-04-02T13:48:50.518Z,10.10
2023-04-02T13:51:18.411Z,10.11
2023-04-02T13:53:46.969Z,10.09
2023-04-02T13:56:13.697Z,10.12
2023-04-02T13:58:40.267Z,10.13
2023-04-02T14:01:06.953Z,10.13
2023-04-02T14:03:34.517Z,10.16
2023-04-02T14:06:04.096Z,10.18
2023-04-02T14:08:42.775Z,10.17
2023-04-02T14:11:25.015Z,10.22
2023-04-02T14:13:57.646Z,10.26
2023-04-02T14:16:28.081Z,10.23
2023-04-02T14:19:13.814Z,10.24
2023-04-02T14:21:40.355Z,10.22
2023-04-02T14:24:16.278Z,10.24
2023-04-02T14:27:06.343Z,10.25
2023-04-02T14:29:41.530Z,10.22
2023-04-02T14:32:11.589Z,10.25
2023-04-02T14:34:54.043Z,10.28
2023-04-02T14:37:27.237Z,10.31
2023-04-02T14:39:57.397Z,10.32
2023-04-02T14:42:27.147Z,10.32
2023-04-02T14:45:02.459Z,10.31
2023-04-02T14:48:02.932Z,10.34
2023-04-02T14:50:38.892Z,10.35
2023-04-02T14:53:12.400Z,10.35
2023-04-02T14:55:42.796Z,10.33
2023-04-02T14:58:15.665Z,10.36
2023-04-02T15:00:45.746Z,10.37
2023-04-02T15:03:16.325Z,10.43
2023-04-02T15:05:49.847Z,10.49
2023-04-02T15:08:22.774Z,10.53
2023-04-02T15:10:56.252Z,10.55
2023-04-02T15:13:30.609Z,10.58
2023-04-02T15:16:04.306Z,10.58
2023-04-02T15:18:31.173Z,10.61
2023-04-02T15:20:57.693Z,10.57
2023-04-02T15:23:50.632Z,10.53
2023-04-02T15:26:23.436Z,10.47
2023-04-02T15:28:55.344Z,10.45
2023-04-02T15:31:24.366Z,10.42
2023-04-02T15:33:55.415Z,10.38
2023-04-02T15:36:29.572Z,10.35
2023-04-02T15:38:58.933Z,10.32
2023-04-02T15:41:26.648Z,10.26
2023-04-02T15:44:05.551Z,10.24
2023-04-02T15:46:43.992Z,10.24
2023-04-02T15:49:10.704Z,10.25
2023-04-02T15:51:40.004Z,10.24
2023-04-02T15:54:27.006Z,10.18
2023-04-02T15:57:16.982Z,10.15
2023-04-02T15:59:49.837Z,10.15
2023-04-02T16:02:19.368Z,10.09
2023-04-02T16:04:53.937Z,10.06
2023-04-02T16:07:29.718Z,10.09
2023-04-02T16:09:56.864Z,10.06
2023-04-02T16:12:25.404Z,10.04
2023-04-02T16:14:53.334Z,10.04
2023-04-02T16:17:25.537Z,10.01
2023-04-02T16:20:25.085Z,9.98
2023-04-02T16:23:26.977Z,9.96
2023-04-02T16:26:08.171Z,9.91
2023-04-02T16:28:43.259Z,9.86
2023-04-02T16:31:21.969Z,9.79
2023-04-02T16:34:07.017Z,9.75
2023-04-02T16:36:52.981Z,9.73
2023-04-02T16:39:22.408Z,9.73
2023-04-02T16:42:07.593Z,9.69
2023-04-02T16:44:43.421Z,9.66
2023-04-02T16:47:22.788Z,9.66
2023-04-02T16:49:52.301Z,9.61
2023-04-02T16:52:37.755Z,9.62
2023-04-02T16:55:07.383Z,9.65
2023-04-02T16:57:34.776Z,9.66
2023-04-02T17:00:19.809Z,9.67
2023-04-02T17:03:18.950Z,9.69
2023-04-02T17:05:57.743Z,9.71
2023-04-02T17:08:30.302Z,9.69
2023-04-02T17:11:01.646Z,9.71
2023-04-02T17:13:47.053Z,9.71
2023-04-02T17:16:20.060Z,9.69
2023-04-02T17:18:47.787Z,9.70
2023-04-02T17:21:17.783Z,9.66
2023-04-02T17:23:55.849Z,9.64
2023-04-02T17:26:28.390Z,9.62
2023-04-02T17:28:57.336Z,9.57
2023-04-02T17:31:25.775Z,9.57
2023-04-02T17:33:52.540Z,9.50
2023-04-02T17:36:19.139Z,9.50
2023-04-02T17:39:06.076Z,9.50
2023-04-02T17:41:44.860Z,9.46
2023-04-02T17:44:17.602Z,9.48
2023-04-02T17:46:44.172Z,9.46
2023-04-02T17:49:11.119Z,9.40
2023-04-02T17:51:37.713Z,9.43
2023-04-02T17:54:04.306Z,9.41
2023-04-02T17:56:38.255Z,9.40
2023-04-02T17:59:23.787Z,9.43
2023-04-02T18:01:50.729Z,9.41
2023-04-02T18:04:26.400Z,9.42
2023-04-02T18:07:07.403Z,9.33
2023-04-02T18:09:34.003Z,9.32
2023-04-02T18:12:20.504Z,9.34
2023-04-02T18:14:53.142Z,9.32
2023-04-02T18:17:19.707Z,9.30
2023-04-02T18:19:46.293Z,9.28
2023-04-02T18:22:15.696Z,9.25
2023-04-02T18:24:59.196Z,9.28
2023-04-02T18:27:31.048Z,9.32
2023-04-02T18:29:57.679Z,9.30
2023-04-02T18:32:24.321Z,9.27
2023-04-02T18:34:58.012Z,9.29
2023-04-02T18:38:08.748Z,9.28
2023-04-02T18:40:38.611Z,9.25
2023-04-02T18:43:24.823Z,9.23
2023-04-02T18:45:54.376Z,9.20
2023-04-02T18:48:41.070Z,9.20
2023-04-02T18:51:22.065Z,9.16
2023-04-02T18:54:11.959Z,9.17
2023-04-02T18:56:39.718Z,9.22
2023-04-02T18:59:14.730Z,9.24
2023-04-02T19:01:46.717Z,9.26
2023-04-02T19:04:16.646Z,9.25
2023-04-02T19:06:44.625Z,9.24
2023-04-02T19:09:15.174Z,9.22
2023-04-02T19:11:41.771Z,9.14
2023-04-02T19:14:12.920Z,9.12
2023-04-02T19:16:45.803Z,9.13
2023-04-02T19:19:18.912Z,9.15
2023-04-02T19:21:51.695Z,9.14
2023-04-02T19:24:27.403Z,9.14
2023-04-02T19:26:57.193Z,9.12
2023-04-02T19:29:26.873Z,9.05
2023-04-02T19:31:58.340Z,9.07
2023-04-02T19:34:46.330Z,9.07
2023-04-02T19:37:16.862Z,9.08
2023-04-02T19:40:02.857Z,9.07
2023-04-02T19:42:35.873Z,9.11
2023-04-02T19:45:02.880Z,9.10
2023-04-02T19:47:29.755Z,9.04
2023-04-02T19:49:56.489Z,9.01
2023-04-02T19:52:23.088Z,9.01
2023-04-02T19:54:49.655Z,9.04
2023-04-02T19:57:17.288Z,9.06
2023-04-02T19:59:43.972Z,9.05
2023-04-02T20:02:11.164Z,9.05
2023-04-02T20:04:40.835Z,9.10
2023-04-02T20:07:07.782Z,9.10
2023-04-02T20:09:34.407Z,9.05
2023-04-02T20:12:01.062Z,9.03
2023-04-02T20:14:29.593Z,8.96
2023-04-02T20:16:56.328Z,8.93
2023-04-02T20:19:23.117Z,8.90
2023-04-02T20:21:49.751Z,8.85
2023-04-02T20:24:16.341Z,8.83
2023-04-02T20:26:42.971Z,8.77
2023-04-02T20:29:09.577Z,8.73
2023-04-02T20:31:36.388Z,8.72
2023-04-02T20:34:05.419Z,8.71
2023-04-02T20:36:32.357Z,8.64
2023-04-02T20:38:59.081Z,8.64
2023-04-02T20:41:26.646Z,8.62
2023-04-02T20:43:53.742Z,8.65
2023-04-02T20:46:20.810Z,8.63
2023-04-02T20:48:47.536Z,8.62
2023-04-02T20:51:15.343Z,8.60
2023-04-02T20:53:42.269Z,8.54
2023-04-02T20:56:10.938Z,8.48
2023-04-02T20:58:38.012Z,8.47
2023-04-02T21:01:07.622Z,8.44
2023-04-02T21:03:34.475Z,8.44
2023-04-02T21:06:01.158Z,8.41
2023-04-02T21:08:27.840Z,8.43
2023-04-02T21:11:01.002Z,8.46
2023-04-02T21:13:29.130Z,8.41
2023-04-02T21:15:56.013Z,8.41
2023-04-02T21:18:22.829Z,8.41
2023-04-02T21:21:04.350Z,8.44
2023-04-02T21:23:31.248Z,8.45
2023-04-02T21:25:58.449Z,8.45
2023-04-02T21:28:25.465Z,8.42
2023-04-02T21:30:52.186Z,8.39
2023-04-02T21:33:18.911Z,8.34
2023-04-02T21:35:45.756Z,8.28
2023-04-02T21:38:12.552Z,8.30
2023-04-02T21:40:40.119Z,8.29
2023-04-02T21:43:08.886Z,8.28
2023-04-02T21:45:35.820Z,8.31
2023-04-02T21:48:02.682Z,8.27
2023-04-02T21:50:29.358Z,8.29
2023-04-02T21:52:56.083Z,8.25
2023-04-02T21:55:22.692Z,8.20
2023-04-02T21:57:49.274Z,8.17
2023-04-02T22:00:15.942Z,8.15
2023-04-02T22:02:42.619Z,8.11
2023-04-02T22:05:09.380Z,8.09
2023-04-02T22:07:35.987Z,8.10
2023-04-02T22:10:02.589Z,8.09
2023-04-02T22:12:30.065Z,8.06
2023-04-02T22:14:56.593Z,8.04
2023-04-02T22:17:23.202Z,8.03
2023-04-02T22:19:49.773Z,8.00
2023-04-02T22:22:16.312Z,7.99
2023-04-02T22:24:42.869Z,7.98
2023-04-02T22:27:09.448Z,7.94
2023-04-02T22:29:36.032Z,7.92
2023-04-02T22:32:02.665Z,7.88
2023-04-02T22:34:29.322Z,7.84
2023-04-02T22:36:56.131Z,7.82
2023-04-02T22:39:22.736Z,7.80
2023-04-02T22:41:49.298Z,7.78
2023-04-02T22:44:16.065Z,7.82
2023-04-02T22:46:42.765Z,7.80
2023-04-02T22:49:11.048Z,7.74
2023-04-02T22:51:37.583Z,7.70
2023-04-02T22:54:04.190Z,7.69
2023-04-02T22:56:35.375Z,7.67
2023-04-02T22:59:01.854Z,7.66
2023-04-02T23:01:30.482Z,7.65
2023-04-02T23:03:57.119Z,7.64
2023-04-02T23:06:24.775Z,7.68
2023-04-02T23:08:51.434Z,7.68
2023-04-02T23:11:22.255Z,7.67
2023-04-02T23:13:50.045Z,7.64
2023-04-02T23:16:17.127Z,7.63
2023-04-02T23:18:45.780Z,7.64
2023-04-02T23:21:12.375Z,7.67
2023-04-02T23:23:39.088Z,7.65
2023-04-02T23:26:07.385Z,7.64
2023-04-02T23:28:34.919Z,7.65
2023-04-02T23:31:02.498Z,7.65
2023-04-02T23:33:29.229Z,7.66
2023-04-02T23:35:55.804Z,7.66
2023-04-02T23:38:22.498Z,7.66
2023-04-02T23:40:49.048Z,7.66
2023-04-02T23:43:15.722Z,7.65
2023-04-02T23:45:46.154Z,7.61
2023-04-02T23:48:12.784Z,7.58
2023-04-02T23:50:39.337Z,7.56
2023-04-02T23:53:05.864Z,7.55
2023-04-02T23:55:32.594Z,7.58
2023-04-02T23:57:59.154Z,7.57
